sensor_id;sensor_type;location;lat;lon;timestamp;P1;durP1;ratioP1;P2;durP2;ratioP2
80567;SDS011;69922;45.656;25.586;2024-01-27T00:00:11;5.40;;;3.50;;
80567;SDS011;69922;45.656;25.586;2024-01-27T00:01:39;5.90;;;3.70;;
80567;SDS011;69922;45.656;25.586;2024-01-27T00:02:46;6.80;;;3.70;;
80567;SDS011;69922;45.656;25.586;2024-01-27T00:03:52;4.90;;;3.20;;
80567;SDS011;69922;45.656;25.586;2024-01-27T00:04:59;6.30;;;3.60;;
80567;SDS011;69922;45.656;25.586;2024-01-27T00:06:06;6.70;;;3.30;;
80567;SDS011;69922;45.656;25.586;2024-01-27T00:07:13;6.20;;;3.30;;
80567;SDS011;69922;45.656;25.586;2024-01-27T00:08:20;7.60;;;3.80;;
80567;SDS011;69922;45.656;25.586;2024-01-27T00:09:27;6.00;;;3.70;;
80567;SDS011;69922;45.656;25.586;2024-01-27T00:10:34;3.30;;;2.30;;
80567;SDS011;69922;45.656;25.586;2024-01-27T00:11:40;6.00;;;3.20;;
80567;SDS011;69922;45.656;25.586;2024-01-27T00:12:47;6.10;;;3.50;;
80567;SDS011;69922;45.656;25.586;2024-01-27T00:13:54;3.90;;;3.20;;
80567;SDS011;69922;45.656;25.586;2024-01-27T00:15:00;4.50;;;3.20;;
80567;SDS011;69922;45.656;25.586;2024-01-27T00:16:09;3.00;;;2.70;;
80567;SDS011;69922;45.656;25.586;2024-01-27T00:17:15;4.20;;;2.90;;
80567;SDS011;69922;45.656;25.586;2024-01-27T00:18:24;3.60;;;3.10;;
80567;SDS011;69922;45.656;25.586;2024-01-27T00:19:30;5.40;;;3.20;;
80567;SDS011;69922;45.656;25.586;2024-01-27T00:20:39;4.00;;;2.80;;
80567;SDS011;69922;45.656;25.586;2024-01-27T00:21:46;3.90;;;2.90;;
80567;SDS011;69922;45.656;25.586;2024-01-27T00:22:53;3.50;;;2.60;;
80567;SDS011;69922;45.656;25.586;2024-01-27T00:24:00;4.30;;;2.70;;
80567;SDS011;69922;45.656;25.586;2024-01-27T00:25:08;6.10;;;3.20;;
80567;SDS011;69922;45.656;25.586;2024-01-27T00:26:14;6.70;;;3.00;;
80567;SDS011;69922;45.656;25.586;2024-01-27T00:27:22;5.10;;;3.00;;
80567;SDS011;69922;45.656;25.586;2024-01-27T00:28:29;5.40;;;2.90;;
80567;SDS011;69922;45.656;25.586;2024-01-27T00:29:36;5.00;;;3.10;;
80567;SDS011;69922;45.656;25.586;2024-01-27T00:30:42;5.10;;;3.30;;
80567;SDS011;69922;45.656;25.586;2024-01-27T00:31:49;5.50;;;2.80;;
80567;SDS011;69922;45.656;25.586;2024-01-27T00:32:56;5.50;;;3.40;;
80567;SDS011;69922;45.656;25.586;2024-01-27T00:34:03;4.90;;;3.10;;
80567;SDS011;69922;45.656;25.586;2024-01-27T00:35:10;4.90;;;3.10;;
80567;SDS011;69922;45.656;25.586;2024-01-27T00:36:19;6.60;;;3.10;;
80567;SDS011;69922;45.656;25.586;2024-01-27T00:37:25;5.70;;;3.20;;
80567;SDS011;69922;45.656;25.586;2024-01-27T00:38:32;7.00;;;3.10;;
80567;SDS011;69922;45.656;25.586;2024-01-27T00:39:39;5.20;;;3.20;;
80567;SDS011;69922;45.656;25.586;2024-01-27T00:40:46;6.80;;;3.50;;
80567;SDS011;69922;45.656;25.586;2024-01-27T00:41:53;4.30;;;2.60;;
80567;SDS011;69922;45.656;25.586;2024-01-27T00:44:09;4.90;;;3.20;;
80567;SDS011;69922;45.656;25.586;2024-01-27T00:45:15;5.20;;;2.70;;
80567;SDS011;69922;45.656;25.586;2024-01-27T00:46:22;6.00;;;3.20;;
80567;SDS011;69922;45.656;25.586;2024-01-27T00:47:28;4.00;;;2.30;;
80567;SDS011;69922;45.656;25.586;2024-01-27T00:48:34;4.70;;;2.70;;
80567;SDS011;69922;45.656;25.586;2024-01-27T00:49:41;6.90;;;3.50;;
80567;SDS011;69922;45.656;25.586;2024-01-27T00:50:48;4.50;;;2.90;;
80567;SDS011;69922;45.656;25.586;2024-01-27T00:51:54;4.40;;;3.00;;
80567;SDS011;69922;45.656;25.586;2024-01-27T00:53:01;6.10;;;3.60;;
80567;SDS011;69922;45.656;25.586;2024-01-27T00:54:08;5.90;;;3.10;;
80567;SDS011;69922;45.656;25.586;2024-01-27T00:55:15;6.50;;;3.60;;
80567;SDS011;69922;45.656;25.586;2024-01-27T00:56:21;7.30;;;3.90;;
80567;SDS011;69922;45.656;25.586;2024-01-27T00:57:28;6.50;;;3.40;;
80567;SDS011;69922;45.656;25.586;2024-01-27T00:58:35;6.60;;;3.80;;
80567;SDS011;69922;45.656;25.586;2024-01-27T00:59:41;6.80;;;4.10;;
80567;SDS011;69922;45.656;25.586;2024-01-27T01:00:47;4.70;;;3.20;;
80567;SDS011;69922;45.656;25.586;2024-01-27T01:01:54;7.00;;;3.50;;
80567;SDS011;69922;45.656;25.586;2024-01-27T01:03:01;5.30;;;3.90;;
80567;SDS011;69922;45.656;25.586;2024-01-27T01:04:08;10.20;;;4.50;;
80567;SDS011;69922;45.656;25.586;2024-01-27T01:05:15;6.80;;;4.10;;
80567;SDS011;69922;45.656;25.586;2024-01-27T01:06:23;7.90;;;3.70;;
80567;SDS011;69922;45.656;25.586;2024-01-27T01:07:30;6.90;;;3.90;;
80567;SDS011;69922;45.656;25.586;2024-01-27T01:08:36;5.40;;;3.60;;
80567;SDS011;69922;45.656;25.586;2024-01-27T01:09:42;6.90;;;3.70;;
80567;SDS011;69922;45.656;25.586;2024-01-27T01:10:49;6.40;;;3.90;;
80567;SDS011;69922;45.656;25.586;2024-01-27T01:11:56;5.00;;;3.40;;
80567;SDS011;69922;45.656;25.586;2024-01-27T01:13:03;6.80;;;3.60;;
80567;SDS011;69922;45.656;25.586;2024-01-27T01:14:10;6.10;;;3.20;;
80567;SDS011;69922;45.656;25.586;2024-01-27T01:15:17;5.40;;;3.30;;
80567;SDS011;69922;45.656;25.586;2024-01-27T01:16:24;7.20;;;3.80;;
80567;SDS011;69922;45.656;25.586;2024-01-27T01:17:31;5.20;;;2.70;;
80567;SDS011;69922;45.656;25.586;2024-01-27T01:18:38;6.80;;;3.10;;
80567;SDS011;69922;45.656;25.586;2024-01-27T01:19:45;6.10;;;3.30;;
80567;SDS011;69922;45.656;25.586;2024-01-27T01:20:52;5.70;;;3.80;;
80567;SDS011;69922;45.656;25.586;2024-01-27T01:21:59;4.90;;;3.30;;
80567;SDS011;69922;45.656;25.586;2024-01-27T01:23:05;5.90;;;3.70;;
80567;SDS011;69922;45.656;25.586;2024-01-27T01:24:12;6.90;;;3.30;;
80567;SDS011;69922;45.656;25.586;2024-01-27T01:25:19;5.90;;;3.50;;
80567;SDS011;69922;45.656;25.586;2024-01-27T01:26:25;6.70;;;3.90;;
80567;SDS011;69922;45.656;25.586;2024-01-27T01:27:32;8.40;;;4.50;;
80567;SDS011;69922;45.656;25.586;2024-01-27T01:28:38;10.00;;;5.10;;
80567;SDS011;69922;45.656;25.586;2024-01-27T01:29:44;9.80;;;4.10;;
80567;SDS011;69922;45.656;25.586;2024-01-27T01:30:51;7.30;;;3.90;;
80567;SDS011;69922;45.656;25.586;2024-01-27T01:31:58;5.40;;;3.90;;
80567;SDS011;69922;45.656;25.586;2024-01-27T01:33:07;8.20;;;4.20;;
80567;SDS011;69922;45.656;25.586;2024-01-27T01:34:15;7.80;;;3.90;;
80567;SDS011;69922;45.656;25.586;2024-01-27T01:35:22;7.20;;;4.10;;
80567;SDS011;69922;45.656;25.586;2024-01-27T01:36:29;7.60;;;4.30;;
80567;SDS011;69922;45.656;25.586;2024-01-27T01:37:35;10.20;;;4.80;;
80567;SDS011;69922;45.656;25.586;2024-01-27T01:38:42;9.40;;;5.40;;
80567;SDS011;69922;45.656;25.586;2024-01-27T01:39:50;10.30;;;5.20;;
80567;SDS011;69922;45.656;25.586;2024-01-27T01:40:57;10.90;;;5.40;;
80567;SDS011;69922;45.656;25.586;2024-01-27T01:42:04;14.20;;;5.60;;
80567;SDS011;69922;45.656;25.586;2024-01-27T01:43:11;11.30;;;5.70;;
80567;SDS011;69922;45.656;25.586;2024-01-27T01:44:18;11.80;;;6.40;;
80567;SDS011;69922;45.656;25.586;2024-01-27T01:45:24;11.30;;;6.60;;
80567;SDS011;69922;45.656;25.586;2024-01-27T01:46:31;11.30;;;5.70;;
80567;SDS011;69922;45.656;25.586;2024-01-27T01:47:38;11.10;;;6.00;;
80567;SDS011;69922;45.656;25.586;2024-01-27T01:48:45;13.40;;;6.70;;
80567;SDS011;69922;45.656;25.586;2024-01-27T01:49:52;10.60;;;6.60;;
80567;SDS011;69922;45.656;25.586;2024-01-27T01:51:01;10.40;;;5.20;;
80567;SDS011;69922;45.656;25.586;2024-01-27T01:52:08;11.80;;;6.40;;
80567;SDS011;69922;45.656;25.586;2024-01-27T01:53:16;9.00;;;5.70;;
80567;SDS011;69922;45.656;25.586;2024-01-27T01:54:22;11.40;;;6.30;;
80567;SDS011;69922;45.656;25.586;2024-01-27T01:55:32;10.90;;;6.50;;
80567;SDS011;69922;45.656;25.586;2024-01-27T01:56:39;8.80;;;5.50;;
80567;SDS011;69922;45.656;25.586;2024-01-27T01:57:46;9.20;;;5.40;;
80567;SDS011;69922;45.656;25.586;2024-01-27T01:58:55;10.40;;;5.10;;
80567;SDS011;69922;45.656;25.586;2024-01-27T02:00:01;7.40;;;4.60;;
80567;SDS011;69922;45.656;25.586;2024-01-27T02:01:09;10.50;;;5.30;;
80567;SDS011;69922;45.656;25.586;2024-01-27T02:02:16;10.90;;;5.80;;
80567;SDS011;69922;45.656;25.586;2024-01-27T02:03:22;9.40;;;5.40;;
80567;SDS011;69922;45.656;25.586;2024-01-27T02:04:29;9.10;;;5.70;;
80567;SDS011;69922;45.656;25.586;2024-01-27T02:05:46;6.20;;;3.30;;
80567;SDS011;69922;45.656;25.586;2024-01-27T02:06:52;4.70;;;2.90;;
80567;SDS011;69922;45.656;25.586;2024-01-27T02:07:59;4.00;;;2.60;;
80567;SDS011;69922;45.656;25.586;2024-01-27T02:09:08;5.60;;;2.80;;
80567;SDS011;69922;45.656;25.586;2024-01-27T02:10:15;4.40;;;3.00;;
80567;SDS011;69922;45.656;25.586;2024-01-27T02:11:22;8.90;;;2.80;;
80567;SDS011;69922;45.656;25.586;2024-01-27T02:12:29;5.60;;;2.90;;
80567;SDS011;69922;45.656;25.586;2024-01-27T02:13:36;6.00;;;2.80;;
80567;SDS011;69922;45.656;25.586;2024-01-27T02:14:42;4.50;;;2.40;;
80567;SDS011;69922;45.656;25.586;2024-01-27T02:15:49;4.10;;;2.80;;
80567;SDS011;69922;45.656;25.586;2024-01-27T02:16:56;4.50;;;2.90;;
80567;SDS011;69922;45.656;25.586;2024-01-27T02:18:03;5.40;;;2.60;;
80567;SDS011;69922;45.656;25.586;2024-01-27T02:19:10;5.40;;;2.50;;
80567;SDS011;69922;45.656;25.586;2024-01-27T02:20:18;4.10;;;2.10;;
80567;SDS011;69922;45.656;25.586;2024-01-27T02:21:25;7.00;;;4.10;;
80567;SDS011;69922;45.656;25.586;2024-01-27T02:22:31;6.80;;;3.40;;
80567;SDS011;69922;45.656;25.586;2024-01-27T02:23:38;4.30;;;3.20;;
80567;SDS011;69922;45.656;25.586;2024-01-27T02:24:44;5.50;;;3.10;;
80567;SDS011;69922;45.656;25.586;2024-01-27T02:25:51;4.70;;;2.90;;
80567;SDS011;69922;45.656;25.586;2024-01-27T02:26:58;5.70;;;3.20;;
80567;SDS011;69922;45.656;25.586;2024-01-27T02:28:05;5.70;;;3.10;;
80567;SDS011;69922;45.656;25.586;2024-01-27T02:29:12;5.50;;;3.00;;
80567;SDS011;69922;45.656;25.586;2024-01-27T02:30:18;3.40;;;2.60;;
80567;SDS011;69922;45.656;25.586;2024-01-27T02:31:24;7.20;;;2.60;;
80567;SDS011;69922;45.656;25.586;2024-01-27T02:32:31;4.60;;;3.00;;
80567;SDS011;69922;45.656;25.586;2024-01-27T02:33:38;3.60;;;2.60;;
80567;SDS011;69922;45.656;25.586;2024-01-27T02:34:45;5.90;;;2.90;;
80567;SDS011;69922;45.656;25.586;2024-01-27T02:35:51;6.30;;;2.70;;
80567;SDS011;69922;45.656;25.586;2024-01-27T02:36:58;4.70;;;2.20;;
80567;SDS011;69922;45.656;25.586;2024-01-27T02:38:05;4.50;;;2.40;;
80567;SDS011;69922;45.656;25.586;2024-01-27T02:39:12;6.10;;;2.50;;
80567;SDS011;69922;45.656;25.586;2024-01-27T02:40:18;4.30;;;2.80;;
80567;SDS011;69922;45.656;25.586;2024-01-27T02:41:26;6.20;;;3.20;;
80567;SDS011;69922;45.656;25.586;2024-01-27T02:42:33;4.10;;;2.70;;
80567;SDS011;69922;45.656;25.586;2024-01-27T02:43:39;3.50;;;2.70;;
80567;SDS011;69922;45.656;25.586;2024-01-27T02:44:46;4.10;;;2.50;;
80567;SDS011;69922;45.656;25.586;2024-01-27T02:45:54;3.60;;;2.40;;
80567;SDS011;69922;45.656;25.586;2024-01-27T02:47:00;5.60;;;3.00;;
80567;SDS011;69922;45.656;25.586;2024-01-27T02:48:08;4.90;;;2.90;;
80567;SDS011;69922;45.656;25.586;2024-01-27T02:49:15;5.40;;;2.20;;
80567;SDS011;69922;45.656;25.586;2024-01-27T02:50:21;5.30;;;2.80;;
80567;SDS011;69922;45.656;25.586;2024-01-27T02:51:28;6.00;;;3.00;;
80567;SDS011;69922;45.656;25.586;2024-01-27T02:52:35;7.20;;;3.20;;
80567;SDS011;69922;45.656;25.586;2024-01-27T02:53:42;3.30;;;2.70;;
80567;SDS011;69922;45.656;25.586;2024-01-27T02:54:48;6.40;;;2.60;;
80567;SDS011;69922;45.656;25.586;2024-01-27T02:55:55;4.80;;;2.90;;
80567;SDS011;69922;45.656;25.586;2024-01-27T02:57:03;4.80;;;2.70;;
80567;SDS011;69922;45.656;25.586;2024-01-27T02:58:10;5.10;;;3.20;;
80567;SDS011;69922;45.656;25.586;2024-01-27T02:59:17;6.30;;;3.30;;
80567;SDS011;69922;45.656;25.586;2024-01-27T03:00:24;6.70;;;2.90;;
80567;SDS011;69922;45.656;25.586;2024-01-27T03:01:30;6.20;;;3.30;;
80567;SDS011;69922;45.656;25.586;2024-01-27T03:02:37;5.50;;;3.20;;
80567;SDS011;69922;45.656;25.586;2024-01-27T03:03:44;5.10;;;3.00;;
80567;SDS011;69922;45.656;25.586;2024-01-27T03:04:51;7.00;;;3.30;;
80567;SDS011;69922;45.656;25.586;2024-01-27T03:05:57;7.30;;;3.40;;
80567;SDS011;69922;45.656;25.586;2024-01-27T03:07:04;7.40;;;3.80;;
80567;SDS011;69922;45.656;25.586;2024-01-27T03:08:11;7.00;;;3.50;;
80567;SDS011;69922;45.656;25.586;2024-01-27T03:09:18;6.30;;;3.70;;
80567;SDS011;69922;45.656;25.586;2024-01-27T03:10:25;8.20;;;4.00;;
80567;SDS011;69922;45.656;25.586;2024-01-27T03:11:31;7.20;;;3.60;;
80567;SDS011;69922;45.656;25.586;2024-01-27T03:12:38;7.10;;;3.50;;
80567;SDS011;69922;45.656;25.586;2024-01-27T03:13:44;7.40;;;4.10;;
80567;SDS011;69922;45.656;25.586;2024-01-27T03:14:51;7.10;;;3.50;;
80567;SDS011;69922;45.656;25.586;2024-01-27T03:15:59;7.20;;;3.90;;
80567;SDS011;69922;45.656;25.586;2024-01-27T03:17:06;6.80;;;3.60;;
80567;SDS011;69922;45.656;25.586;2024-01-27T03:18:13;6.40;;;3.90;;
80567;SDS011;69922;45.656;25.586;2024-01-27T03:19:20;6.50;;;3.90;;
80567;SDS011;69922;45.656;25.586;2024-01-27T03:20:28;7.30;;;4.20;;
80567;SDS011;69922;45.656;25.586;2024-01-27T03:21:37;7.40;;;4.70;;
80567;SDS011;69922;45.656;25.586;2024-01-27T03:22:44;8.70;;;3.70;;
80567;SDS011;69922;45.656;25.586;2024-01-27T03:23:50;9.90;;;4.80;;
80567;SDS011;69922;45.656;25.586;2024-01-27T03:24:57;9.70;;;6.20;;
80567;SDS011;69922;45.656;25.586;2024-01-27T03:26:04;9.50;;;5.50;;
80567;SDS011;69922;45.656;25.586;2024-01-27T03:27:11;9.90;;;5.40;;
80567;SDS011;69922;45.656;25.586;2024-01-27T03:28:18;10.90;;;5.40;;
80567;SDS011;69922;45.656;25.586;2024-01-27T03:29:25;9.30;;;5.00;;
80567;SDS011;69922;45.656;25.586;2024-01-27T03:30:33;11.70;;;6.30;;
80567;SDS011;69922;45.656;25.586;2024-01-27T03:31:39;9.90;;;6.10;;
80567;SDS011;69922;45.656;25.586;2024-01-27T03:32:46;10.30;;;5.30;;
80567;SDS011;69922;45.656;25.586;2024-01-27T03:33:53;10.50;;;5.80;;
80567;SDS011;69922;45.656;25.586;2024-01-27T03:35:01;11.50;;;6.30;;
80567;SDS011;69922;45.656;25.586;2024-01-27T03:36:10;9.30;;;5.40;;
80567;SDS011;69922;45.656;25.586;2024-01-27T03:37:17;10.50;;;5.10;;
80567;SDS011;69922;45.656;25.586;2024-01-27T03:38:26;11.80;;;5.70;;
80567;SDS011;69922;45.656;25.586;2024-01-27T03:39:33;10.70;;;5.90;;
80567;SDS011;69922;45.656;25.586;2024-01-27T03:40:40;10.90;;;5.50;;
80567;SDS011;69922;45.656;25.586;2024-01-27T03:41:47;9.00;;;4.90;;
80567;SDS011;69922;45.656;25.586;2024-01-27T03:42:53;9.60;;;5.60;;
80567;SDS011;69922;45.656;25.586;2024-01-27T03:44:00;11.70;;;5.90;;
80567;SDS011;69922;45.656;25.586;2024-01-27T03:45:07;11.40;;;5.90;;
80567;SDS011;69922;45.656;25.586;2024-01-27T03:46:14;11.70;;;5.50;;
80567;SDS011;69922;45.656;25.586;2024-01-27T03:47:21;8.90;;;5.20;;
80567;SDS011;69922;45.656;25.586;2024-01-27T03:48:28;10.60;;;5.50;;
80567;SDS011;69922;45.656;25.586;2024-01-27T03:49:35;10.00;;;5.20;;
80567;SDS011;69922;45.656;25.586;2024-01-27T03:50:42;8.30;;;5.10;;
80567;SDS011;69922;45.656;25.586;2024-01-27T03:51:49;10.50;;;4.80;;
80567;SDS011;69922;45.656;25.586;2024-01-27T03:52:56;8.10;;;5.50;;
80567;SDS011;69922;45.656;25.586;2024-01-27T03:54:03;9.60;;;5.40;;
80567;SDS011;69922;45.656;25.586;2024-01-27T03:55:10;12.40;;;5.40;;
80567;SDS011;69922;45.656;25.586;2024-01-27T03:56:16;12.70;;;6.00;;
80567;SDS011;69922;45.656;25.586;2024-01-27T03:57:23;9.00;;;5.10;;
80567;SDS011;69922;45.656;25.586;2024-01-27T03:58:29;9.20;;;5.60;;
80567;SDS011;69922;45.656;25.586;2024-01-27T03:59:36;9.60;;;5.00;;
80567;SDS011;69922;45.656;25.586;2024-01-27T04:00:44;10.40;;;5.50;;
80567;SDS011;69922;45.656;25.586;2024-01-27T04:01:51;9.10;;;4.60;;
80567;SDS011;69922;45.656;25.586;2024-01-27T04:02:58;9.10;;;4.80;;
80567;SDS011;69922;45.656;25.586;2024-01-27T04:04:05;10.00;;;5.30;;
80567;SDS011;69922;45.656;25.586;2024-01-27T04:05:13;7.60;;;4.80;;
80567;SDS011;69922;45.656;25.586;2024-01-27T04:06:19;9.70;;;4.30;;
80567;SDS011;69922;45.656;25.586;2024-01-27T04:07:26;9.20;;;4.80;;
80567;SDS011;69922;45.656;25.586;2024-01-27T04:08:33;12.30;;;6.10;;
80567;SDS011;69922;45.656;25.586;2024-01-27T04:09:39;10.30;;;6.30;;
80567;SDS011;69922;45.656;25.586;2024-01-27T04:10:47;10.20;;;5.10;;
80567;SDS011;69922;45.656;25.586;2024-01-27T04:11:54;8.20;;;5.20;;
80567;SDS011;69922;45.656;25.586;2024-01-27T04:13:01;11.00;;;6.20;;
80567;SDS011;69922;45.656;25.586;2024-01-27T04:14:07;9.10;;;5.10;;
80567;SDS011;69922;45.656;25.586;2024-01-27T04:15:14;9.50;;;5.60;;
80567;SDS011;69922;45.656;25.586;2024-01-27T04:16:21;10.10;;;5.70;;
80567;SDS011;69922;45.656;25.586;2024-01-27T04:17:28;11.20;;;5.90;;
80567;SDS011;69922;45.656;25.586;2024-01-27T04:18:35;9.80;;;5.20;;
80567;SDS011;69922;45.656;25.586;2024-01-27T04:19:42;8.40;;;5.10;;
80567;SDS011;69922;45.656;25.586;2024-01-27T04:20:50;10.50;;;5.70;;
80567;SDS011;69922;45.656;25.586;2024-01-27T04:21:56;11.50;;;5.50;;
80567;SDS011;69922;45.656;25.586;2024-01-27T04:23:03;10.80;;;5.00;;
80567;SDS011;69922;45.656;25.586;2024-01-27T04:24:10;8.80;;;5.50;;
80567;SDS011;69922;45.656;25.586;2024-01-27T04:25:17;7.10;;;4.90;;
80567;SDS011;69922;45.656;25.586;2024-01-27T04:26:23;9.30;;;5.30;;
80567;SDS011;69922;45.656;25.586;2024-01-27T04:27:30;9.70;;;5.10;;
80567;SDS011;69922;45.656;25.586;2024-01-27T04:28:37;9.40;;;5.20;;
80567;SDS011;69922;45.656;25.586;2024-01-27T04:29:44;9.60;;;4.40;;
80567;SDS011;69922;45.656;25.586;2024-01-27T04:30:51;7.40;;;4.20;;
80567;SDS011;69922;45.656;25.586;2024-01-27T04:31:58;9.60;;;5.00;;
80567;SDS011;69922;45.656;25.586;2024-01-27T04:33:04;8.90;;;4.50;;
80567;SDS011;69922;45.656;25.586;2024-01-27T04:34:12;7.00;;;4.30;;
80567;SDS011;69922;45.656;25.586;2024-01-27T04:35:19;8.10;;;4.10;;
80567;SDS011;69922;45.656;25.586;2024-01-27T04:36:26;6.40;;;3.50;;
80567;SDS011;69922;45.656;25.586;2024-01-27T04:37:34;7.80;;;4.00;;
80567;SDS011;69922;45.656;25.586;2024-01-27T04:38:43;9.40;;;3.70;;
80567;SDS011;69922;45.656;25.586;2024-01-27T04:39:49;6.60;;;3.60;;
80567;SDS011;69922;45.656;25.586;2024-01-27T04:40:56;5.10;;;3.30;;
80567;SDS011;69922;45.656;25.586;2024-01-27T04:42:02;5.40;;;3.60;;
80567;SDS011;69922;45.656;25.586;2024-01-27T04:43:12;4.60;;;3.00;;
80567;SDS011;69922;45.656;25.586;2024-01-27T04:44:21;5.40;;;3.30;;
80567;SDS011;69922;45.656;25.586;2024-01-27T04:45:27;6.80;;;3.60;;
80567;SDS011;69922;45.656;25.586;2024-01-27T04:46:34;6.20;;;3.50;;
80567;SDS011;69922;45.656;25.586;2024-01-27T04:47:41;6.20;;;4.50;;
80567;SDS011;69922;45.656;25.586;2024-01-27T04:48:47;4.90;;;3.50;;
80567;SDS011;69922;45.656;25.586;2024-01-27T04:49:55;6.20;;;3.40;;
80567;SDS011;69922;45.656;25.586;2024-01-27T04:51:04;5.10;;;3.00;;
80567;SDS011;69922;45.656;25.586;2024-01-27T04:52:12;3.90;;;2.80;;
80567;SDS011;69922;45.656;25.586;2024-01-27T04:53:18;5.00;;;3.10;;
80567;SDS011;69922;45.656;25.586;2024-01-27T04:54:24;6.50;;;3.20;;
80567;SDS011;69922;45.656;25.586;2024-01-27T04:55:31;4.60;;;2.10;;
80567;SDS011;69922;45.656;25.586;2024-01-27T04:56:38;6.70;;;3.50;;
80567;SDS011;69922;45.656;25.586;2024-01-27T04:57:44;4.50;;;2.90;;
80567;SDS011;69922;45.656;25.586;2024-01-27T04:58:51;3.40;;;2.60;;
80567;SDS011;69922;45.656;25.586;2024-01-27T04:59:57;5.60;;;3.10;;
80567;SDS011;69922;45.656;25.586;2024-01-27T05:01:04;4.60;;;2.40;;
80567;SDS011;69922;45.656;25.586;2024-01-27T05:02:11;3.90;;;2.60;;
80567;SDS011;69922;45.656;25.586;2024-01-27T05:03:18;4.10;;;3.10;;
80567;SDS011;69922;45.656;25.586;2024-01-27T05:04:25;4.10;;;2.90;;
80567;SDS011;69922;45.656;25.586;2024-01-27T05:05:32;4.30;;;2.70;;
80567;SDS011;69922;45.656;25.586;2024-01-27T05:06:43;4.90;;;2.60;;
80567;SDS011;69922;45.656;25.586;2024-01-27T05:07:53;6.10;;;3.10;;
80567;SDS011;69922;45.656;25.586;2024-01-27T05:09:00;4.80;;;2.30;;
80567;SDS011;69922;45.656;25.586;2024-01-27T05:10:09;6.10;;;3.30;;
80567;SDS011;69922;45.656;25.586;2024-01-27T05:11:24;4.70;;;2.50;;
80567;SDS011;69922;45.656;25.586;2024-01-27T05:12:35;4.60;;;2.70;;
80567;SDS011;69922;45.656;25.586;2024-01-27T05:13:41;6.70;;;3.00;;
80567;SDS011;69922;45.656;25.586;2024-01-27T05:14:49;5.60;;;3.10;;
80567;SDS011;69922;45.656;25.586;2024-01-27T05:15:56;4.60;;;3.20;;
80567;SDS011;69922;45.656;25.586;2024-01-27T05:17:02;4.30;;;2.80;;
80567;SDS011;69922;45.656;25.586;2024-01-27T05:18:09;3.80;;;2.90;;
80567;SDS011;69922;45.656;25.586;2024-01-27T05:19:17;4.70;;;2.60;;
80567;SDS011;69922;45.656;25.586;2024-01-27T05:20:24;5.30;;;3.40;;
80567;SDS011;69922;45.656;25.586;2024-01-27T05:21:30;4.10;;;2.90;;
80567;SDS011;69922;45.656;25.586;2024-01-27T05:22:37;4.30;;;2.90;;
80567;SDS011;69922;45.656;25.586;2024-01-27T05:23:44;4.70;;;2.60;;
80567;SDS011;69922;45.656;25.586;2024-01-27T05:24:50;7.20;;;3.30;;
80567;SDS011;69922;45.656;25.586;2024-01-27T05:25:57;6.30;;;3.70;;
80567;SDS011;69922;45.656;25.586;2024-01-27T05:27:04;6.90;;;4.20;;
80567;SDS011;69922;45.656;25.586;2024-01-27T05:28:11;4.50;;;2.90;;
80567;SDS011;69922;45.656;25.586;2024-01-27T05:29:17;5.20;;;2.90;;
80567;SDS011;69922;45.656;25.586;2024-01-27T05:30:24;4.70;;;2.30;;
80567;SDS011;69922;45.656;25.586;2024-01-27T05:31:31;4.30;;;2.70;;
80567;SDS011;69922;45.656;25.586;2024-01-27T05:32:37;4.30;;;2.50;;
80567;SDS011;69922;45.656;25.586;2024-01-27T05:33:44;5.50;;;3.00;;
80567;SDS011;69922;45.656;25.586;2024-01-27T05:34:51;5.70;;;3.30;;
80567;SDS011;69922;45.656;25.586;2024-01-27T05:35:58;5.00;;;3.20;;
80567;SDS011;69922;45.656;25.586;2024-01-27T05:37:04;5.40;;;2.40;;
80567;SDS011;69922;45.656;25.586;2024-01-27T05:38:11;5.70;;;2.80;;
80567;SDS011;69922;45.656;25.586;2024-01-27T05:39:18;5.60;;;3.10;;
80567;SDS011;69922;45.656;25.586;2024-01-27T05:40:24;4.40;;;3.00;;
80567;SDS011;69922;45.656;25.586;2024-01-27T05:41:31;4.10;;;3.30;;
80567;SDS011;69922;45.656;25.586;2024-01-27T05:42:38;5.00;;;3.00;;
80567;SDS011;69922;45.656;25.586;2024-01-27T05:43:46;4.90;;;2.60;;
80567;SDS011;69922;45.656;25.586;2024-01-27T05:44:53;5.40;;;2.90;;
80567;SDS011;69922;45.656;25.586;2024-01-27T05:46:00;4.70;;;3.20;;
80567;SDS011;69922;45.656;25.586;2024-01-27T05:47:08;5.40;;;2.70;;
80567;SDS011;69922;45.656;25.586;2024-01-27T05:48:16;4.00;;;2.80;;
80567;SDS011;69922;45.656;25.586;2024-01-27T05:49:23;4.40;;;2.80;;
80567;SDS011;69922;45.656;25.586;2024-01-27T05:50:29;4.60;;;2.90;;
80567;SDS011;69922;45.656;25.586;2024-01-27T05:51:36;3.90;;;2.50;;
80567;SDS011;69922;45.656;25.586;2024-01-27T05:52:43;4.40;;;2.40;;
80567;SDS011;69922;45.656;25.586;2024-01-27T05:53:50;3.00;;;2.30;;
80567;SDS011;69922;45.656;25.586;2024-01-27T05:54:58;4.70;;;2.70;;
80567;SDS011;69922;45.656;25.586;2024-01-27T05:56:06;4.30;;;2.80;;
80567;SDS011;69922;45.656;25.586;2024-01-27T05:57:13;2.80;;;1.90;;
80567;SDS011;69922;45.656;25.586;2024-01-27T05:58:20;4.40;;;2.60;;
80567;SDS011;69922;45.656;25.586;2024-01-27T05:59:27;4.00;;;2.80;;
80567;SDS011;69922;45.656;25.586;2024-01-27T06:00:33;5.30;;;2.70;;
80567;SDS011;69922;45.656;25.586;2024-01-27T06:01:40;3.80;;;2.70;;
80567;SDS011;69922;45.656;25.586;2024-01-27T06:02:48;3.60;;;2.00;;
80567;SDS011;69922;45.656;25.586;2024-01-27T06:03:56;4.20;;;2.30;;
80567;SDS011;69922;45.656;25.586;2024-01-27T06:05:04;4.20;;;2.80;;
80567;SDS011;69922;45.656;25.586;2024-01-27T06:06:13;3.60;;;2.20;;
80567;SDS011;69922;45.656;25.586;2024-01-27T06:07:21;3.40;;;2.20;;
80567;SDS011;69922;45.656;25.586;2024-01-27T06:08:28;3.50;;;2.30;;
80567;SDS011;69922;45.656;25.586;2024-01-27T06:09:36;3.70;;;2.30;;
80567;SDS011;69922;45.656;25.586;2024-01-27T06:10:43;4.30;;;2.30;;
80567;SDS011;69922;45.656;25.586;2024-01-27T06:11:50;3.60;;;2.50;;
80567;SDS011;69922;45.656;25.586;2024-01-27T06:12:57;4.00;;;2.30;;
80567;SDS011;69922;45.656;25.586;2024-01-27T06:14:04;3.90;;;2.50;;
80567;SDS011;69922;45.656;25.586;2024-01-27T06:15:11;4.90;;;2.60;;
80567;SDS011;69922;45.656;25.586;2024-01-27T06:16:20;4.10;;;2.80;;
80567;SDS011;69922;45.656;25.586;2024-01-27T06:17:28;4.60;;;3.20;;
80567;SDS011;69922;45.656;25.586;2024-01-27T06:18:35;4.00;;;2.80;;
80567;SDS011;69922;45.656;25.586;2024-01-27T06:19:42;5.40;;;2.80;;
80567;SDS011;69922;45.656;25.586;2024-01-27T06:20:50;5.30;;;3.10;;
80567;SDS011;69922;45.656;25.586;2024-01-27T06:21:57;4.40;;;3.30;;
80567;SDS011;69922;45.656;25.586;2024-01-27T06:23:07;6.50;;;3.40;;
80567;SDS011;69922;45.656;25.586;2024-01-27T06:24:14;4.70;;;3.40;;
80567;SDS011;69922;45.656;25.586;2024-01-27T06:25:20;6.50;;;3.60;;
80567;SDS011;69922;45.656;25.586;2024-01-27T06:26:28;5.00;;;3.30;;
80567;SDS011;69922;45.656;25.586;2024-01-27T06:27:34;6.60;;;3.10;;
80567;SDS011;69922;45.656;25.586;2024-01-27T06:28:42;5.20;;;3.70;;
80567;SDS011;69922;45.656;25.586;2024-01-27T06:29:48;6.10;;;3.60;;
80567;SDS011;69922;45.656;25.586;2024-01-27T06:30:55;4.80;;;3.50;;
80567;SDS011;69922;45.656;25.586;2024-01-27T06:32:03;4.80;;;3.20;;
80567;SDS011;69922;45.656;25.586;2024-01-27T06:33:13;5.30;;;3.40;;
80567;SDS011;69922;45.656;25.586;2024-01-27T06:34:20;4.20;;;2.80;;
80567;SDS011;69922;45.656;25.586;2024-01-27T06:35:27;6.10;;;3.60;;
80567;SDS011;69922;45.656;25.586;2024-01-27T06:36:33;6.80;;;3.60;;
80567;SDS011;69922;45.656;25.586;2024-01-27T06:37:40;6.10;;;3.10;;
80567;SDS011;69922;45.656;25.586;2024-01-27T06:38:47;7.10;;;3.20;;